sensor_id;sensor_type;location;lat;lon;timestamp;P1;durP1;ratioP1;P2;durP2;ratioP2
61391;SDS011;47261;52.892;5.738;2022-10-10T00:00:37;10.88;;;5.80;;
61391;SDS011;47261;52.892;5.738;2022-10-10T00:03:04;16.33;;;5.47;;
61391;SDS011;47261;52.892;5.738;2022-10-10T00:05:31;11.80;;;5.70;;
61391;SDS011;47261;52.892;5.738;2022-10-10T00:07:56;10.57;;;5.28;;
61391;SDS011;47261;52.892;5.738;2022-10-10T00:10:22;9.50;;;5.17;;
61391;SDS011;47261;52.892;5.738;2022-10-10T00:12:48;12.70;;;5.95;;
61391;SDS011;47261;52.892;5.738;2022-10-10T00:15:14;13.30;;;6.20;;
61391;SDS011;47261;52.892;5.738;2022-10-10T00:17:40;11.90;;;5.57;;
61391;SDS011;47261;52.892;5.738;2022-10-10T00:20:08;12.13;;;6.18;;
61391;SDS011;47261;52.892;5.738;2022-10-10T00:22:38;12.38;;;6.32;;
61391;SDS011;47261;52.892;5.738;2022-10-10T00:25:04;13.13;;;5.73;;
61391;SDS011;47261;52.892;5.738;2022-10-10T00:27:31;11.20;;;6.35;;
61391;SDS011;47261;52.892;5.738;2022-10-10T00:29:57;16.63;;;6.28;;
61391;SDS011;47261;52.892;5.738;2022-10-10T00:32:22;12.77;;;6.00;;
61391;SDS011;47261;52.892;5.738;2022-10-10T00:34:48;12.77;;;5.97;;
61391;SDS011;47261;52.892;5.738;2022-10-10T00:37:14;11.27;;;6.05;;
61391;SDS011;47261;52.892;5.738;2022-10-10T00:39:40;10.77;;;6.17;;
61391;SDS011;47261;52.892;5.738;2022-10-10T00:42:05;12.73;;;6.00;;
61391;SDS011;47261;52.892;5.738;2022-10-10T00:44:31;15.18;;;6.10;;
61391;SDS011;47261;52.892;5.738;2022-10-10T00:46:57;13.50;;;6.00;;
61391;SDS011;47261;52.892;5.738;2022-10-10T00:49:23;14.85;;;5.85;;
61391;SDS011;47261;52.892;5.738;2022-10-10T00:51:54;12.88;;;5.97;;
61391;SDS011;47261;52.892;5.738;2022-10-10T00:54:22;10.60;;;4.72;;
61391;SDS011;47261;52.892;5.738;2022-10-10T00:56:51;11.77;;;5.68;;
61391;SDS011;47261;52.892;5.738;2022-10-10T00:59:21;12.60;;;5.60;;
61391;SDS011;47261;52.892;5.738;2022-10-10T01:01:48;13.07;;;5.80;;
61391;SDS011;47261;52.892;5.738;2022-10-10T01:04:31;11.57;;;5.55;;
61391;SDS011;47261;52.892;5.738;2022-10-10T01:06:57;11.53;;;6.10;;
61391;SDS011;47261;52.892;5.738;2022-10-10T01:09:24;13.88;;;6.15;;
61391;SDS011;47261;52.892;5.738;2022-10-10T01:11:52;9.70;;;5.63;;
61391;SDS011;47261;52.892;5.738;2022-10-10T01:28:34;14.35;;;5.45;;
61391;SDS011;47261;52.892;5.738;2022-10-10T01:31:17;15.73;;;6.30;;
61391;SDS011;47261;52.892;5.738;2022-10-10T01:36:20;14.55;;;6.13;;
61391;SDS011;47261;52.892;5.738;2022-10-10T01:39:02;15.38;;;5.68;;
61391;SDS011;47261;52.892;5.738;2022-10-10T01:41:37;12.02;;;5.05;;
61391;SDS011;47261;52.892;5.738;2022-10-10T01:44:13;12.75;;;5.90;;
61391;SDS011;47261;52.892;5.738;2022-10-10T01:46:39;10.60;;;5.80;;
61391;SDS011;47261;52.892;5.738;2022-10-10T01:49:05;11.85;;;5.50;;
61391;SDS011;47261;52.892;5.738;2022-10-10T01:57:30;16.33;;;6.32;;
61391;SDS011;47261;52.892;5.738;2022-10-10T02:00:07;12.63;;;5.47;;
61391;SDS011;47261;52.892;5.738;2022-10-10T02:10:26;12.50;;;4.95;;
61391;SDS011;47261;52.892;5.738;2022-10-10T02:12:54;18.60;;;6.43;;
61391;SDS011;47261;52.892;5.738;2022-10-10T02:15:23;13.10;;;5.35;;
61391;SDS011;47261;52.892;5.738;2022-10-10T02:17:52;12.13;;;6.13;;
61391;SDS011;47261;52.892;5.738;2022-10-10T02:20:21;15.57;;;6.15;;
61391;SDS011;47261;52.892;5.738;2022-10-10T02:22:49;11.32;;;5.55;;
61391;SDS011;47261;52.892;5.738;2022-10-10T02:25:16;13.07;;;5.45;;
61391;SDS011;47261;52.892;5.738;2022-10-10T02:30:24;14.83;;;6.37;;
61391;SDS011;47261;52.892;5.738;2022-10-10T02:32:58;13.05;;;5.72;;
61391;SDS011;47261;52.892;5.738;2022-10-10T02:35:31;13.77;;;6.10;;
61391;SDS011;47261;52.892;5.738;2022-10-10T02:38:01;14.05;;;5.90;;
61391;SDS011;47261;52.892;5.738;2022-10-10T02:40:30;11.90;;;5.40;;
61391;SDS011;47261;52.892;5.738;2022-10-10T02:42:59;12.70;;;5.18;;
61391;SDS011;47261;52.892;5.738;2022-10-10T02:45:26;10.68;;;4.78;;
61391;SDS011;47261;52.892;5.738;2022-10-10T02:47:53;15.88;;;6.35;;
61391;SDS011;47261;52.892;5.738;2022-10-10T02:50:19;9.67;;;4.90;;
61391;SDS011;47261;52.892;5.738;2022-10-10T02:52:45;17.65;;;5.85;;
61391;SDS011;47261;52.892;5.738;2022-10-10T02:55:11;13.57;;;5.78;;
61391;SDS011;47261;52.892;5.738;2022-10-10T02:57:37;13.60;;;5.83;;
61391;SDS011;47261;52.892;5.738;2022-10-10T03:00:03;13.87;;;5.20;;
61391;SDS011;47261;52.892;5.738;2022-10-10T03:02:30;9.32;;;4.82;;
61391;SDS011;47261;52.892;5.738;2022-10-10T03:04:55;11.15;;;5.60;;
61391;SDS011;47261;52.892;5.738;2022-10-10T03:07:22;11.60;;;5.18;;
61391;SDS011;47261;52.892;5.738;2022-10-10T03:09:49;10.57;;;4.93;;
61391;SDS011;47261;52.892;5.738;2022-10-10T03:12:15;14.05;;;5.03;;
61391;SDS011;47261;52.892;5.738;2022-10-10T03:14:40;9.33;;;4.73;;
61391;SDS011;47261;52.892;5.738;2022-10-10T03:17:06;11.45;;;4.82;;
61391;SDS011;47261;52.892;5.738;2022-10-10T03:19:31;11.97;;;4.57;;
61391;SDS011;47261;52.892;5.738;2022-10-10T03:21:57;16.10;;;5.22;;
61391;SDS011;47261;52.892;5.738;2022-10-10T03:24:23;11.87;;;4.73;;
61391;SDS011;47261;52.892;5.738;2022-10-10T03:26:49;10.60;;;5.10;;
61391;SDS011;47261;52.892;5.738;2022-10-10T03:29:14;11.40;;;5.13;;
61391;SDS011;47261;52.892;5.738;2022-10-10T03:31:40;13.40;;;4.82;;
61391;SDS011;47261;52.892;5.738;2022-10-10T03:34:05;9.63;;;4.53;;
61391;SDS011;47261;52.892;5.738;2022-10-10T03:36:31;12.50;;;5.27;;
61391;SDS011;47261;52.892;5.738;2022-10-10T03:38:57;9.65;;;4.40;;
61391;SDS011;47261;52.892;5.738;2022-10-10T03:41:22;12.13;;;5.07;;
61391;SDS011;47261;52.892;5.738;2022-10-10T03:43:48;9.77;;;5.38;;
61391;SDS011;47261;52.892;5.738;2022-10-10T03:46:13;10.20;;;4.53;;
61391;SDS011;47261;52.892;5.738;2022-10-10T03:48:39;13.18;;;4.82;;
61391;SDS011;47261;52.892;5.738;2022-10-10T03:51:05;10.27;;;5.10;;
61391;SDS011;47261;52.892;5.738;2022-10-10T03:53:30;13.15;;;5.18;;
61391;SDS011;47261;52.892;5.738;2022-10-10T03:55:56;13.67;;;4.93;;
61391;SDS011;47261;52.892;5.738;2022-10-10T03:58:22;12.67;;;5.37;;
61391;SDS011;47261;52.892;5.738;2022-10-10T04:00:54;13.35;;;4.57;;
61391;SDS011;47261;52.892;5.738;2022-10-10T04:03:21;11.30;;;5.22;;
61391;SDS011;47261;52.892;5.738;2022-10-10T04:05:47;12.53;;;5.00;;
61391;SDS011;47261;52.892;5.738;2022-10-10T04:08:13;10.55;;;4.95;;
61391;SDS011;47261;52.892;5.738;2022-10-10T04:10:38;13.20;;;4.50;;
61391;SDS011;47261;52.892;5.738;2022-10-10T04:13:04;12.82;;;4.78;;
61391;SDS011;47261;52.892;5.738;2022-10-10T04:15:29;13.43;;;4.97;;
61391;SDS011;47261;52.892;5.738;2022-10-10T04:17:56;11.43;;;5.00;;
61391;SDS011;47261;52.892;5.738;2022-10-10T04:20:22;11.45;;;4.40;;
61391;SDS011;47261;52.892;5.738;2022-10-10T04:22:48;13.70;;;5.37;;
61391;SDS011;47261;52.892;5.738;2022-10-10T04:25:14;11.07;;;5.13;;
61391;SDS011;47261;52.892;5.738;2022-10-10T04:27:40;12.80;;;5.03;;
61391;SDS011;47261;52.892;5.738;2022-10-10T04:30:07;11.93;;;4.90;;
61391;SDS011;47261;52.892;5.738;2022-10-10T04:32:34;12.07;;;5.30;;
61391;SDS011;47261;52.892;5.738;2022-10-10T04:35:00;10.23;;;5.05;;
61391;SDS011;47261;52.892;5.738;2022-10-10T04:37:26;13.73;;;5.20;;
61391;SDS011;47261;52.892;5.738;2022-10-10T04:39:52;12.83;;;5.60;;
61391;SDS011;47261;52.892;5.738;2022-10-10T04:42:17;13.57;;;5.83;;
61391;SDS011;47261;52.892;5.738;2022-10-10T04:44:43;13.07;;;4.57;;
61391;SDS011;47261;52.892;5.738;2022-10-10T04:47:09;9.93;;;4.77;;
61391;SDS011;47261;52.892;5.738;2022-10-10T04:49:34;12.10;;;5.68;;
61391;SDS011;47261;52.892;5.738;2022-10-10T04:52:00;12.47;;;5.33;;
61391;SDS011;47261;52.892;5.738;2022-10-10T04:54:25;13.03;;;5.23;;
61391;SDS011;47261;52.892;5.738;2022-10-10T04:56:51;11.43;;;5.50;;
61391;SDS011;47261;52.892;5.738;2022-10-10T04:59:16;15.93;;;4.83;;
61391;SDS011;47261;52.892;5.738;2022-10-10T05:01:42;10.53;;;4.73;;
61391;SDS011;47261;52.892;5.738;2022-10-10T05:04:08;13.43;;;5.00;;
61391;SDS011;47261;52.892;5.738;2022-10-10T05:06:33;11.20;;;5.30;;
61391;SDS011;47261;52.892;5.738;2022-10-10T05:08:59;14.70;;;5.35;;
61391;SDS011;47261;52.892;5.738;2022-10-10T05:11:25;10.40;;;5.00;;
61391;SDS011;47261;52.892;5.738;2022-10-10T05:13:50;10.65;;;4.93;;
61391;SDS011;47261;52.892;5.738;2022-10-10T05:16:16;11.03;;;4.50;;
61391;SDS011;47261;52.892;5.738;2022-10-10T05:18:42;11.13;;;4.75;;
61391;SDS011;47261;52.892;5.738;2022-10-10T05:21:08;12.80;;;5.03;;
61391;SDS011;47261;52.892;5.738;2022-10-10T05:23:35;12.60;;;4.82;;
61391;SDS011;47261;52.892;5.738;2022-10-10T05:26:02;10.90;;;4.72;;
61391;SDS011;47261;52.892;5.738;2022-10-10T05:28:29;11.15;;;4.95;;
61391;SDS011;47261;52.892;5.738;2022-10-10T05:30:54;12.70;;;5.50;;
61391;SDS011;47261;52.892;5.738;2022-10-10T05:33:20;11.02;;;4.97;;
61391;SDS011;47261;52.892;5.738;2022-10-10T05:35:46;18.77;;;5.60;;
61391;SDS011;47261;52.892;5.738;2022-10-10T05:38:11;16.85;;;5.82;;
61391;SDS011;47261;52.892;5.738;2022-10-10T05:40:40;14.10;;;4.70;;
61391;SDS011;47261;52.892;5.738;2022-10-10T05:43:06;10.10;;;4.80;;
61391;SDS011;47261;52.892;5.738;2022-10-10T05:45:32;11.93;;;5.07;;
61391;SDS011;47261;52.892;5.738;2022-10-10T05:47:58;13.63;;;5.32;;
61391;SDS011;47261;52.892;5.738;2022-10-10T05:50:34;11.37;;;4.00;;
61391;SDS011;47261;52.892;5.738;2022-10-10T05:53:02;13.43;;;4.47;;
61391;SDS011;47261;52.892;5.738;2022-10-10T05:55:28;10.93;;;4.95;;
61391;SDS011;47261;52.892;5.738;2022-10-10T05:57:54;10.37;;;4.57;;
61391;SDS011;47261;52.892;5.738;2022-10-10T06:00:20;11.80;;;4.45;;
61391;SDS011;47261;52.892;5.738;2022-10-10T06:02:46;13.13;;;4.63;;
61391;SDS011;47261;52.892;5.738;2022-10-10T06:05:12;10.20;;;4.43;;
61391;SDS011;47261;52.892;5.738;2022-10-10T06:07:38;14.35;;;5.18;;
61391;SDS011;47261;52.892;5.738;2022-10-10T06:10:03;12.73;;;5.57;;
61391;SDS011;47261;52.892;5.738;2022-10-10T06:12:29;10.68;;;4.93;;
61391;SDS011;47261;52.892;5.738;2022-10-10T06:14:55;11.37;;;4.97;;
61391;SDS011;47261;52.892;5.738;2022-10-10T06:17:21;12.07;;;4.70;;
61391;SDS011;47261;52.892;5.738;2022-10-10T06:19:47;13.45;;;4.30;;
61391;SDS011;47261;52.892;5.738;2022-10-10T06:22:13;10.37;;;4.57;;
61391;SDS011;47261;52.892;5.738;2022-10-10T06:24:38;11.40;;;4.23;;
61391;SDS011;47261;52.892;5.738;2022-10-10T06:27:04;12.77;;;4.57;;
61391;SDS011;47261;52.892;5.738;2022-10-10T06:29:29;9.40;;;4.70;;
61391;SDS011;47261;52.892;5.738;2022-10-10T06:31:55;10.88;;;4.35;;
61391;SDS011;47261;52.892;5.738;2022-10-10T06:34:21;9.70;;;4.80;;
61391;SDS011;47261;52.892;5.738;2022-10-10T06:36:48;10.50;;;3.97;;
61391;SDS011;47261;52.892;5.738;2022-10-10T06:39:14;8.80;;;3.60;;
61391;SDS011;47261;52.892;5.738;2022-10-10T06:41:40;12.85;;;4.78;;
61391;SDS011;47261;52.892;5.738;2022-10-10T06:44:06;9.43;;;4.30;;
61391;SDS011;47261;52.892;5.738;2022-10-10T06:46:31;11.93;;;5.40;;
61391;SDS011;47261;52.892;5.738;2022-10-10T06:49:01;10.07;;;4.03;;
61391;SDS011;47261;52.892;5.738;2022-10-10T06:51:28;10.85;;;4.28;;
61391;SDS011;47261;52.892;5.738;2022-10-10T06:53:55;10.45;;;4.38;;
61391;SDS011;47261;52.892;5.738;2022-10-10T06:56:21;8.97;;;4.43;;
61391;SDS011;47261;52.892;5.738;2022-10-10T06:58:47;11.52;;;4.70;;
61391;SDS011;47261;52.892;5.738;2022-10-10T07:01:16;9.52;;;4.22;;
61391;SDS011;47261;52.892;5.738;2022-10-10T07:03:43;15.60;;;4.95;;
61391;SDS011;47261;52.892;5.738;2022-10-10T07:06:09;12.47;;;5.10;;
61391;SDS011;47261;52.892;5.738;2022-10-10T07:08:35;15.75;;;5.50;;
61391;SDS011;47261;52.892;5.738;2022-10-10T07:11:02;11.40;;;5.30;;
61391;SDS011;47261;52.892;5.738;2022-10-10T07:13:28;8.38;;;3.88;;
61391;SDS011;47261;52.892;5.738;2022-10-10T07:15:54;17.03;;;5.47;;
61391;SDS011;47261;52.892;5.738;2022-10-10T07:18:20;13.98;;;5.13;;
61391;SDS011;47261;52.892;5.738;2022-10-10T07:20:46;13.10;;;5.73;;
61391;SDS011;47261;52.892;5.738;2022-10-10T07:23:11;15.10;;;6.05;;
61391;SDS011;47261;52.892;5.738;2022-10-10T07:25:38;11.10;;;5.00;;
61391;SDS011;47261;52.892;5.738;2022-10-10T07:28:05;12.60;;;4.97;;
61391;SDS011;47261;52.892;5.738;2022-10-10T07:30:32;11.57;;;5.07;;
61391;SDS011;47261;52.892;5.738;2022-10-10T07:33:02;12.48;;;6.05;;
61391;SDS011;47261;52.892;5.738;2022-10-10T07:35:28;13.90;;;6.10;;
61391;SDS011;47261;52.892;5.738;2022-10-10T07:37:54;12.97;;;5.73;;
61391;SDS011;47261;52.892;5.738;2022-10-10T07:40:20;11.43;;;5.22;;
61391;SDS011;47261;52.892;5.738;2022-10-10T07:42:46;19.33;;;5.07;;
61391;SDS011;47261;52.892;5.738;2022-10-10T07:45:12;17.55;;;5.05;;
61391;SDS011;47261;52.892;5.738;2022-10-10T07:47:38;17.20;;;6.23;;
61391;SDS011;47261;52.892;5.738;2022-10-10T07:50:04;15.95;;;6.30;;
61391;SDS011;47261;52.892;5.738;2022-10-10T07:52:32;11.27;;;3.65;;
61391;SDS011;47261;52.892;5.738;2022-10-10T07:54:59;14.73;;;5.93;;
61391;SDS011;47261;52.892;5.738;2022-10-10T07:57:25;17.13;;;6.73;;
61391;SDS011;47261;52.892;5.738;2022-10-10T07:59:51;14.18;;;5.53;;
61391;SDS011;47261;52.892;5.738;2022-10-10T08:02:16;15.13;;;5.73;;
61391;SDS011;47261;52.892;5.738;2022-10-10T08:04:42;16.92;;;6.38;;
61391;SDS011;47261;52.892;5.738;2022-10-10T08:07:08;16.33;;;5.63;;
61391;SDS011;47261;52.892;5.738;2022-10-10T08:09:33;18.77;;;6.50;;
61391;SDS011;47261;52.892;5.738;2022-10-10T08:11:59;14.67;;;6.40;;
61391;SDS011;47261;52.892;5.738;2022-10-10T08:14:25;17.45;;;5.82;;
61391;SDS011;47261;52.892;5.738;2022-10-10T08:16:50;12.70;;;5.77;;
61391;SDS011;47261;52.892;5.738;2022-10-10T08:19:16;15.32;;;6.60;;
61391;SDS011;47261;52.892;5.738;2022-10-10T08:21:41;17.30;;;6.80;;
61391;SDS011;47261;52.892;5.738;2022-10-10T08:24:07;12.60;;;5.30;;
61391;SDS011;47261;52.892;5.738;2022-10-10T08:26:33;6.47;;;2.80;;
61391;SDS011;47261;52.892;5.738;2022-10-10T08:28:58;10.77;;;3.27;;
61391;SDS011;47261;52.892;5.738;2022-10-10T08:31:24;12.15;;;4.80;;
61391;SDS011;47261;52.892;5.738;2022-10-10T08:33:50;14.80;;;6.13;;
61391;SDS011;47261;52.892;5.738;2022-10-10T08:36:20;9.23;;;4.13;;
61391;SDS011;47261;52.892;5.738;2022-10-10T08:38:47;8.77;;;3.45;;
61391;SDS011;47261;52.892;5.738;2022-10-10T08:41:26;11.27;;;4.90;;
61391;SDS011;47261;52.892;5.738;2022-10-10T08:46:58;12.90;;;4.82;;
61391;SDS011;47261;52.892;5.738;2022-10-10T08:49:40;11.05;;;4.95;;
61391;SDS011;47261;52.892;5.738;2022-10-10T08:55:00;17.42;;;5.90;;
61391;SDS011;47261;52.892;5.738;2022-10-10T08:57:34;12.93;;;6.43;;
61391;SDS011;47261;52.892;5.738;2022-10-10T09:00:17;12.75;;;6.20;;
61391;SDS011;47261;52.892;5.738;2022-10-10T09:02:48;12.48;;;4.43;;
61391;SDS011;47261;52.892;5.738;2022-10-10T09:10:55;9.67;;;4.93;;
61391;SDS011;47261;52.892;5.738;2022-10-10T09:13:47;13.77;;;5.82;;
61391;SDS011;47261;52.892;5.738;2022-10-10T09:16:40;12.63;;;5.68;;
61391;SDS011;47261;52.892;5.738;2022-10-10T09:21:54;13.32;;;5.90;;
61391;SDS011;47261;52.892;5.738;2022-10-10T09:24:24;13.73;;;4.50;;
61391;SDS011;47261;52.892;5.738;2022-10-10T09:26:57;10.98;;;6.07;;
61391;SDS011;47261;52.892;5.738;2022-10-10T09:29:36;13.02;;;4.53;;
61391;SDS011;47261;52.892;5.738;2022-10-10T09:32:16;13.68;;;6.22;;
61391;SDS011;47261;52.892;5.738;2022-10-10T09:34:57;11.88;;;5.70;;
61391;SDS011;47261;52.892;5.738;2022-10-10T09:37:32;16.37;;;6.03;;
61391;SDS011;47261;52.892;5.738;2022-10-10T09:42:51;14.90;;;6.47;;
61391;SDS011;47261;52.892;5.738;2022-10-10T09:45:19;11.07;;;4.97;;
61391;SDS011;47261;52.892;5.738;2022-10-10T09:47:52;10.65;;;5.03;;
61391;SDS011;47261;52.892;5.738;2022-10-10T09:50:18;15.47;;;5.13;;
61391;SDS011;47261;52.892;5.738;2022-10-10T09:52:44;7.03;;;3.38;;
61391;SDS011;47261;52.892;5.738;2022-10-10T09:55:20;11.73;;;5.18;;
61391;SDS011;47261;52.892;5.738;2022-10-10T09:57:48;14.98;;;5.10;;
61391;SDS011;47261;52.892;5.738;2022-10-10T10:02:48;9.13;;;2.95;;
61391;SDS011;47261;52.892;5.738;2022-10-10T10:05:27;12.23;;;5.97;;
61391;SDS011;47261;52.892;5.738;2022-10-10T10:07:53;14.55;;;5.53;;
61391;SDS011;47261;52.892;5.738;2022-10-10T10:10:21;15.57;;;5.90;;
61391;SDS011;47261;52.892;5.738;2022-10-10T10:12:48;12.97;;;6.07;;
61391;SDS011;47261;52.892;5.738;2022-10-10T10:15:19;10.10;;;4.38;;
61391;SDS011;47261;52.892;5.738;2022-10-10T10:20:41;9.05;;;4.07;;
61391;SDS011;47261;52.892;5.738;2022-10-10T10:23:21;13.07;;;5.55;;
61391;SDS011;47261;52.892;5.738;2022-10-10T10:26:05;7.53;;;2.70;;
61391;SDS011;47261;52.892;5.738;2022-10-10T10:28:49;12.80;;;4.78;;
61391;SDS011;47261;52.892;5.738;2022-10-10T10:34:15;12.38;;;5.72;;
61391;SDS011;47261;52.892;5.738;2022-10-10T10:46:08;10.85;;;3.40;;
61391;SDS011;47261;52.892;5.738;2022-10-10T10:48:40;8.57;;;3.83;;
61391;SDS011;47261;52.892;5.738;2022-10-10T10:57:23;7.82;;;3.72;;
61391;SDS011;47261;52.892;5.738;2022-10-10T11:00:11;9.85;;;3.92;;
61391;SDS011;47261;52.892;5.738;2022-10-10T11:02:43;10.30;;;3.55;;
61391;SDS011;47261;52.892;5.738;2022-10-10T11:08:21;11.47;;;4.63;;
61391;SDS011;47261;52.892;5.738;2022-10-10T11:11:04;12.55;;;4.97;;
61391;SDS011;47261;52.892;5.738;2022-10-10T11:16:53;9.27;;;4.20;;
61391;SDS011;47261;52.892;5.738;2022-10-10T11:19:24;10.05;;;4.15;;
61391;SDS011;47261;52.892;5.738;2022-10-10T11:22:21;9.97;;;4.80;;
61391;SDS011;47261;52.892;5.738;2022-10-10T11:25:02;8.20;;;3.97;;
61391;SDS011;47261;52.892;5.738;2022-10-10T11:27:37;13.32;;;4.85;;
61391;SDS011;47261;52.892;5.738;2022-10-10T11:30:16;10.40;;;3.83;;
61391;SDS011;47261;52.892;5.738;2022-10-10T11:32:46;11.07;;;4.75;;
61391;SDS011;47261;52.892;5.738;2022-10-10T11:38:21;11.55;;;6.35;;
61391;SDS011;47261;52.892;5.738;2022-10-10T11:40:57;13.50;;;3.88;;
61391;SDS011;47261;52.892;5.738;2022-10-10T11:43:42;9.45;;;4.10;;
61391;SDS011;47261;52.892;5.738;2022-10-10T11:48:53;12.60;;;4.60;;
61391;SDS011;47261;52.892;5.738;2022-10-10T11:51:27;17.73;;;5.60;;
61391;SDS011;47261;52.892;5.738;2022-10-10T11:54:03;12.98;;;5.13;;
61391;SDS011;47261;52.892;5.738;2022-10-10T11:56:38;13.65;;;5.90;;
61391;SDS011;47261;52.892;5.738;2022-10-10T11:59:29;9.30;;;5.28;;
61391;SDS011;47261;52.892;5.738;2022-10-10T12:02:18;17.17;;;5.10;;
61391;SDS011;47261;52.892;5.738;2022-10-10T12:04:49;14.32;;;5.18;;
61391;SDS011;47261;52.892;5.738;2022-10-10T12:09:52;14.07;;;6.00;;
61391;SDS011;47261;52.892;5.738;2022-10-10T12:12:29;12.32;;;5.57;;
61391;SDS011;47261;52.892;5.738;2022-10-10T12:15:05;13.37;;;3.90;;
61391;SDS011;47261;52.892;5.738;2022-10-10T12:17:37;9.45;;;4.70;;
61391;SDS011;47261;52.892;5.738;2022-10-10T12:20:09;14.30;;;3.85;;
61391;SDS011;47261;52.892;5.738;2022-10-10T12:25:40;11.32;;;4.63;;
61391;SDS011;47261;52.892;5.738;2022-10-10T12:49:38;13.45;;;5.22;;
61391;SDS011;47261;52.892;5.738;2022-10-10T12:52:20;18.33;;;6.75;;
61391;SDS011;47261;52.892;5.738;2022-10-10T12:55:24;21.67;;;10.00;;
61391;SDS011;47261;52.892;5.738;2022-10-10T12:57:57;8.90;;;1.00;;
61391;SDS011;47261;52.892;5.738;2022-10-10T13:00:35;8.05;;;0.55;;
61391;SDS011;47261;52.892;5.738;2022-10-10T13:03:04;5.38;;;0.55;;
61391;SDS011;47261;52.892;5.738;2022-10-10T13:05:43;8.48;;;0.52;;
61391;SDS011;47261;52.892;5.738;2022-10-10T13:08:11;12.17;;;0.57;;
61391;SDS011;47261;52.892;5.738;2022-10-10T13:10:40;9.27;;;0.50;;
61391;SDS011;47261;52.892;5.738;2022-10-10T13:15:37;9.07;;;0.93;;
61391;SDS011;47261;52.892;5.738;2022-10-10T13:18:03;8.37;;;0.80;;
61391;SDS011;47261;52.892;5.738;2022-10-10T13:20:36;9.85;;;1.10;;
61391;SDS011;47261;52.892;5.738;2022-10-10T13:23:04;9.77;;;0.70;;
61391;SDS011;47261;52.892;5.738;2022-10-10T13:25:35;13.48;;;1.10;;
61391;SDS011;47261;52.892;5.738;2022-10-10T13:28:02;12.63;;;1.20;;
61391;SDS011;47261;52.892;5.738;2022-10-10T13:30:29;13.20;;;1.05;;
61391;SDS011;47261;52.892;5.738;2022-10-10T13:32:55;12.10;;;1.65;;
61391;SDS011;47261;52.892;5.738;2022-10-10T13:35:25;6.82;;;0.70;;
61391;SDS011;47261;52.892;5.738;2022-10-10T13:37:56;11.77;;;1.00;;
61391;SDS011;47261;52.892;5.738;2022-10-10T13:40:24;14.77;;;0.90;;
61391;SDS011;47261;52.892;5.738;2022-10-10T13:42:51;12.23;;;1.00;;
61391;SDS011;47261;52.892;5.738;2022-10-10T13:47:51;12.20;;;0.80;;
61391;SDS011;47261;52.892;5.738;2022-10-10T14:01:03;14.05;;;1.15;;
61391;SDS011;47261;52.892;5.738;2022-10-10T14:03:30;10.80;;;0.90;;
61391;SDS011;47261;52.892;5.738;2022-10-10T14:05:57;15.20;;;1.17;;
61391;SDS011;47261;52.892;5.738;2022-10-10T14:08:27;6.43;;;1.03;;
61391;SDS011;47261;52.892;5.738;2022-10-10T14:10:58;18.42;;;1.30;;
61391;SDS011;47261;52.892;5.738;2022-10-10T14:13:26;14.25;;;0.80;;
61391;SDS011;47261;52.892;5.738;2022-10-10T14:16:07;12.70;;;1.05;;
61391;SDS011;47261;52.892;5.738;2022-10-10T14:18:39;13.43;;;1.02;;
61391;SDS011;47261;52.892;5.738;2022-10-10T14:21:06;14.10;;;1.17;;
61391;SDS011;47261;52.892;5.738;2022-10-10T14:23:32;13.77;;;1.00;;
61391;SDS011;47261;52.892;5.738;2022-10-10T14:25:59;14.02;;;1.50;;
61391;SDS011;47261;52.892;5.738;2022-10-10T14:28:25;14.25;;;1.50;;
61391;SDS011;47261;52.892;5.738;2022-10-10T14:30:52;10.80;;;1.07;;
61391;SDS011;47261;52.892;5.738;2022-10-10T14:33:18;12.15;;;1.25;;
61391;SDS011;47261;52.892;5.738;2022-10-10T14:35:44;11.40;;;1.10;;
61391;SDS011;47261;52.892;5.738;2022-10-10T14:38:12;13.30;;;1.20;;
61391;SDS011;47261;52.892;5.738;2022-10-10T14:40:40;11.03;;;1.13;;
61391;SDS011;47261;52.892;5.738;2022-10-10T14:43:06;10.63;;;1.00;;
61391;SDS011;47261;52.892;5.738;2022-10-10T14:45:32;13.27;;;1.13;;
61391;SDS011;47261;52.892;5.738;2022-10-10T14:47:58;15.70;;;1.00;;
61391;SDS011;47261;52.892;5.738;2022-10-10T14:50:30;14.18;;;1.50;;
61391;SDS011;47261;52.892;5.738;2022-10-10T14:52:58;10.68;;;0.82;;
61391;SDS011;47261;52.892;5.738;2022-10-10T14:55:24;11.50;;;1.00;;
61391;SDS011;47261;52.892;5.738;2022-10-10T14:57:49;11.63;;;1.00;;
61391;SDS011;47261;52.892;5.738;2022-10-10T15:00:19;11.50;;;1.55;;
61391;SDS011;47261;52.892;5.738;2022-10-10T15:02:48;11.37;;;1.27;;
61391;SDS011;47261;52.892;5.738;2022-10-10T15:05:14;16.40;;;1.23;;
61391;SDS011;47261;52.892;5.738;2022-10-10T15:07:40;13.10;;;1.10;;
61391;SDS011;47261;52.892;5.738;2022-10-10T15:10:07;12.98;;;1.65;;
61391;SDS011;47261;52.892;5.738;2022-10-10T15:12:35;13.83;;;1.20;;
61391;SDS011;47261;52.892;5.738;2022-10-10T15:15:03;11.07;;;1.20;;
61391;SDS011;47261;52.892;5.738;2022-10-10T15:17:29;14.60;;;1.15;;
61391;SDS011;47261;52.892;5.738;2022-10-10T15:19:57;13.15;;;1.33;;
61391;SDS011;47261;52.892;5.738;2022-10-10T15:22:23;12.37;;;1.63;;
61391;SDS011;47261;52.892;5.738;2022-10-10T15:24:49;16.08;;;1.65;;
61391;SDS011;47261;52.892;5.738;2022-10-10T15:27:14;11.57;;;0.77;;
61391;SDS011;47261;52.892;5.738;2022-10-10T15:29:40;13.15;;;1.10;;
61391;SDS011;47261;52.892;5.738;2022-10-10T15:32:05;10.60;;;0.80;;
61391;SDS011;47261;52.892;5.738;2022-10-10T15:34:31;17.70;;;1.20;;
61391;SDS011;47261;52.892;5.738;2022-10-10T15:36:58;12.13;;;1.60;;
61391;SDS011;47261;52.892;5.738;2022-10-10T15:39:23;13.23;;;1.40;;
61391;SDS011;47261;52.892;5.738;2022-10-10T15:41:49;17.97;;;1.07;;
61391;SDS011;47261;52.892;5.738;2022-10-10T15:44:16;12.43;;;1.13;;
61391;SDS011;47261;52.892;5.738;2022-10-10T15:46:42;14.40;;;1.30;;
61391;SDS011;47261;52.892;5.738;2022-10-10T15:49:09;14.35;;;1.35;;
61391;SDS011;47261;52.892;5.738;2022-10-10T15:51:35;11.80;;;0.88;;
61391;SDS011;47261;52.892;5.738;2022-10-10T15:54:01;23.25;;;1.30;;
61391;SDS011;47261;52.892;5.738;2022-10-10T15:56:28;12.02;;;0.88;;
61391;SDS011;47261;52.892;5.738;2022-10-10T15:58:58;15.40;;;1.23;;
61391;SDS011;47261;52.892;5.738;2022-10-10T16:01:25;11.15;;;0.90;;
61391;SDS011;47261;52.892;5.738;2022-10-10T16:03:51;17.70;;;1.88;;
61391;SDS011;47261;52.892;5.738;2022-10-10T16:06:19;21.35;;;1.50;;
61391;SDS011;47261;52.892;5.738;2022-10-10T16:08:46;10.07;;;0.90;;
61391;SDS011;47261;52.892;5.738;2022-10-10T16:11:14;20.27;;;1.10;;
61391;SDS011;47261;52.892;5.738;2022-10-10T16:13:41;15.18;;;1.40;;
61391;SDS011;47261;52.892;5.738;2022-10-10T16:16:08;12.90;;;1.40;;
61391;SDS011;47261;52.892;5.738;2022-10-10T16:18:37;14.02;;;1.50;;
61391;SDS011;47261;52.892;5.738;2022-10-10T16:21:05;13.38;;;1.20;;
61391;SDS011;47261;52.892;5.738;2022-10-10T16:23:31;17.97;;;1.50;;
61391;SDS011;47261;52.892;5.738;2022-10-10T16:26:04;13.80;;;1.00;;
61391;SDS011;47261;52.892;5.738;2022-10-10T16:28:37;17.67;;;1.60;;
61391;SDS011;47261;52.892;5.738;2022-10-10T16:31:03;10.23;;;1.30;;
61391;SDS011;47261;52.892;5.738;2022-10-10T16:33:31;12.25;;;1.42;;
61391;SDS011;47261;52.892;5.738;2022-10-10T16:35:57;6.03;;;1.52;;
61391;SDS011;47261;52.892;5.738;2022-10-10T16:38:23;13.17;;;1.00;;
61391;SDS011;47261;52.892;5.738;2022-10-10T16:40:49;15.23;;;1.25;;
61391;SDS011;47261;52.892;5.738;2022-10-10T16:43:15;14.83;;;1.23;;
61391;SDS011;47261;52.892;5.738;2022-10-10T16:45:43;16.10;;;1.70;;
61391;SDS011;47261;52.892;5.738;2022-10-10T16:48:10;13.00;;;1.65;;
61391;SDS011;47261;52.892;5.738;2022-10-10T16:50:37;11.77;;;1.00;;
61391;SDS011;47261;52.892;5.738;2022-10-10T16:53:04;11.95;;;0.90;;